sensor_id;sensor_type;location;lat;lon;timestamp;P1;durP1;ratioP1;P2;durP2;ratioP2
80293;SDS011;69594;43.516;1.498;2023-06-22T00:00:41;4.23;;;2.10;;
80293;SDS011;69594;43.516;1.498;2023-06-22T00:03:07;5.15;;;2.33;;
80293;SDS011;69594;43.516;1.498;2023-06-22T00:05:33;7.20;;;2.50;;
80293;SDS011;69594;43.516;1.498;2023-06-22T00:08:01;3.87;;;2.33;;
80293;SDS011;69594;43.516;1.498;2023-06-22T00:10:28;4.97;;;2.22;;
80293;SDS011;69594;43.516;1.498;2023-06-22T00:12:53;5.70;;;2.40;;
80293;SDS011;69594;43.516;1.498;2023-06-22T00:15:19;5.87;;;2.43;;
80293;SDS011;69594;43.516;1.498;2023-06-22T00:17:45;5.53;;;2.93;;
80293;SDS011;69594;43.516;1.498;2023-06-22T00:20:10;7.23;;;3.13;;
80293;SDS011;69594;43.516;1.498;2023-06-22T00:22:36;7.25;;;3.42;;
80293;SDS011;69594;43.516;1.498;2023-06-22T00:25:05;6.53;;;3.25;;
80293;SDS011;69594;43.516;1.498;2023-06-22T00:27:31;7.30;;;4.00;;
80293;SDS011;69594;43.516;1.498;2023-06-22T00:29:57;8.97;;;3.67;;
80293;SDS011;69594;43.516;1.498;2023-06-22T00:32:22;16.87;;;3.70;;
80293;SDS011;69594;43.516;1.498;2023-06-22T00:34:48;8.77;;;3.10;;
80293;SDS011;69594;43.516;1.498;2023-06-22T00:37:13;7.77;;;3.40;;
80293;SDS011;69594;43.516;1.498;2023-06-22T00:39:38;6.80;;;3.05;;
80293;SDS011;69594;43.516;1.498;2023-06-22T00:42:05;5.43;;;2.87;;
80293;SDS011;69594;43.516;1.498;2023-06-22T00:44:31;5.93;;;2.97;;
80293;SDS011;69594;43.516;1.498;2023-06-22T00:46:56;7.27;;;3.20;;
80293;SDS011;69594;43.516;1.498;2023-06-22T00:49:22;5.68;;;3.00;;
80293;SDS011;69594;43.516;1.498;2023-06-22T00:51:48;4.70;;;2.50;;
80293;SDS011;69594;43.516;1.498;2023-06-22T00:54:13;8.03;;;2.97;;
80293;SDS011;69594;43.516;1.498;2023-06-22T00:56:42;6.37;;;2.80;;
80293;SDS011;69594;43.516;1.498;2023-06-22T00:59:09;6.53;;;2.60;;
80293;SDS011;69594;43.516;1.498;2023-06-22T01:01:37;5.65;;;2.67;;
80293;SDS011;69594;43.516;1.498;2023-06-22T01:04:04;5.47;;;2.73;;
80293;SDS011;69594;43.516;1.498;2023-06-22T01:06:32;6.10;;;2.70;;
80293;SDS011;69594;43.516;1.498;2023-06-22T01:09:09;4.88;;;2.47;;
80293;SDS011;69594;43.516;1.498;2023-06-22T01:17:09;6.15;;;2.65;;
80293;SDS011;69594;43.516;1.498;2023-06-22T01:19:45;6.28;;;2.58;;
80293;SDS011;69594;43.516;1.498;2023-06-22T01:22:20;11.00;;;2.55;;
80293;SDS011;69594;43.516;1.498;2023-06-22T01:27:36;5.03;;;2.13;;
80293;SDS011;69594;43.516;1.498;2023-06-22T01:30:12;7.47;;;2.05;;
80293;SDS011;69594;43.516;1.498;2023-06-22T01:32:43;3.67;;;1.95;;
80293;SDS011;69594;43.516;1.498;2023-06-22T01:35:09;6.22;;;1.80;;
80293;SDS011;69594;43.516;1.498;2023-06-22T01:37:36;4.88;;;2.08;;
80293;SDS011;69594;43.516;1.498;2023-06-22T01:40:04;4.40;;;1.80;;
80293;SDS011;69594;43.516;1.498;2023-06-22T01:42:32;4.03;;;1.88;;
80293;SDS011;69594;43.516;1.498;2023-06-22T01:44:57;2.63;;;1.88;;
80293;SDS011;69594;43.516;1.498;2023-06-22T01:47:24;2.87;;;1.50;;
80293;SDS011;69594;43.516;1.498;2023-06-22T01:49:50;13.82;;;1.60;;
80293;SDS011;69594;43.516;1.498;2023-06-22T01:52:17;6.30;;;1.60;;
80293;SDS011;69594;43.516;1.498;2023-06-22T01:54:43;2.92;;;1.20;;
80293;SDS011;69594;43.516;1.498;2023-06-22T01:57:09;4.23;;;1.43;;
80293;SDS011;69594;43.516;1.498;2023-06-22T02:02:22;3.05;;;1.10;;
80293;SDS011;69594;43.516;1.498;2023-06-22T02:07:21;4.47;;;1.40;;
80293;SDS011;69594;43.516;1.498;2023-06-22T02:09:49;2.80;;;1.13;;
80293;SDS011;69594;43.516;1.498;2023-06-22T02:12:18;5.47;;;1.60;;
80293;SDS011;69594;43.516;1.498;2023-06-22T02:14:48;3.22;;;1.67;;
80293;SDS011;69594;43.516;1.498;2023-06-22T02:17:16;2.80;;;1.10;;
80293;SDS011;69594;43.516;1.498;2023-06-22T02:19:42;2.92;;;1.40;;
80293;SDS011;69594;43.516;1.498;2023-06-22T02:22:08;3.28;;;1.10;;
80293;SDS011;69594;43.516;1.498;2023-06-22T02:24:33;3.67;;;1.10;;
80293;SDS011;69594;43.516;1.498;2023-06-22T02:27:00;3.77;;;1.03;;
80293;SDS011;69594;43.516;1.498;2023-06-22T02:29:26;3.95;;;1.27;;
80293;SDS011;69594;43.516;1.498;2023-06-22T02:31:54;3.03;;;1.10;;
80293;SDS011;69594;43.516;1.498;2023-06-22T02:34:23;2.93;;;1.10;;
80293;SDS011;69594;43.516;1.498;2023-06-22T02:36:48;2.87;;;1.30;;
80293;SDS011;69594;43.516;1.498;2023-06-22T02:39:21;3.97;;;1.30;;
80293;SDS011;69594;43.516;1.498;2023-06-22T02:41:48;2.83;;;0.90;;
80293;SDS011;69594;43.516;1.498;2023-06-22T02:44:14;4.85;;;1.05;;
80293;SDS011;69594;43.516;1.498;2023-06-22T02:46:40;5.72;;;1.50;;
80293;SDS011;69594;43.516;1.498;2023-06-22T02:49:06;2.77;;;1.10;;
80293;SDS011;69594;43.516;1.498;2023-06-22T02:51:32;4.00;;;0.90;;
80293;SDS011;69594;43.516;1.498;2023-06-22T02:53:59;3.50;;;1.50;;
80293;SDS011;69594;43.516;1.498;2023-06-22T02:56:25;2.25;;;1.10;;
80293;SDS011;69594;43.516;1.498;2023-06-22T02:58:51;4.67;;;1.80;;
80293;SDS011;69594;43.516;1.498;2023-06-22T03:01:17;2.30;;;0.90;;
80293;SDS011;69594;43.516;1.498;2023-06-22T03:03:49;4.95;;;1.40;;
80293;SDS011;69594;43.516;1.498;2023-06-22T03:06:14;2.80;;;1.20;;
80293;SDS011;69594;43.516;1.498;2023-06-22T03:08:40;3.47;;;1.30;;
80293;SDS011;69594;43.516;1.498;2023-06-22T03:11:06;5.30;;;1.40;;
80293;SDS011;69594;43.516;1.498;2023-06-22T03:13:32;4.27;;;1.30;;
80293;SDS011;69594;43.516;1.498;2023-06-22T03:15:58;2.97;;;1.17;;
80293;SDS011;69594;43.516;1.498;2023-06-22T03:18:23;6.53;;;1.30;;
80293;SDS011;69594;43.516;1.498;2023-06-22T03:20:48;4.83;;;1.43;;
80293;SDS011;69594;43.516;1.498;2023-06-22T03:23:14;5.57;;;1.60;;
80293;SDS011;69594;43.516;1.498;2023-06-22T03:25:40;5.33;;;1.60;;
80293;SDS011;69594;43.516;1.498;2023-06-22T03:28:09;3.85;;;1.75;;
80293;SDS011;69594;43.516;1.498;2023-06-22T03:30:35;5.13;;;1.67;;
80293;SDS011;69594;43.516;1.498;2023-06-22T03:33:00;3.07;;;1.10;;
80293;SDS011;69594;43.516;1.498;2023-06-22T03:35:26;3.80;;;1.50;;
80293;SDS011;69594;43.516;1.498;2023-06-22T03:37:51;4.70;;;1.80;;
80293;SDS011;69594;43.516;1.498;2023-06-22T03:40:17;6.63;;;1.65;;
80293;SDS011;69594;43.516;1.498;2023-06-22T03:42:42;5.33;;;1.40;;
80293;SDS011;69594;43.516;1.498;2023-06-22T03:45:08;5.03;;;1.70;;
80293;SDS011;69594;43.516;1.498;2023-06-22T03:47:33;15.70;;;1.98;;
80293;SDS011;69594;43.516;1.498;2023-06-22T03:49:59;8.27;;;2.10;;
80293;SDS011;69594;43.516;1.498;2023-06-22T03:52:25;5.25;;;1.90;;
80293;SDS011;69594;43.516;1.498;2023-06-22T03:54:50;5.13;;;2.27;;
80293;SDS011;69594;43.516;1.498;2023-06-22T03:57:15;5.20;;;2.13;;
80293;SDS011;69594;43.516;1.498;2023-06-22T03:59:41;6.17;;;2.17;;
80293;SDS011;69594;43.516;1.498;2023-06-22T04:02:06;5.28;;;2.08;;
80293;SDS011;69594;43.516;1.498;2023-06-22T04:04:32;7.10;;;2.30;;
80293;SDS011;69594;43.516;1.498;2023-06-22T04:06:58;7.20;;;2.42;;
80293;SDS011;69594;43.516;1.498;2023-06-22T04:09:24;4.97;;;2.23;;
80293;SDS011;69594;43.516;1.498;2023-06-22T04:11:49;5.13;;;2.53;;
80293;SDS011;69594;43.516;1.498;2023-06-22T04:14:15;6.40;;;2.63;;
80293;SDS011;69594;43.516;1.498;2023-06-22T04:16:40;5.93;;;2.22;;
80293;SDS011;69594;43.516;1.498;2023-06-22T04:19:05;5.10;;;2.60;;
80293;SDS011;69594;43.516;1.498;2023-06-22T04:21:31;6.57;;;2.37;;
80293;SDS011;69594;43.516;1.498;2023-06-22T04:23:56;8.70;;;2.83;;
80293;SDS011;69594;43.516;1.498;2023-06-22T04:26:22;8.35;;;2.60;;
80293;SDS011;69594;43.516;1.498;2023-06-22T04:28:47;6.23;;;2.57;;
80293;SDS011;69594;43.516;1.498;2023-06-22T04:31:16;5.90;;;2.67;;
80293;SDS011;69594;43.516;1.498;2023-06-22T04:33:44;6.50;;;2.40;;
80293;SDS011;69594;43.516;1.498;2023-06-22T04:36:10;7.63;;;2.33;;
80293;SDS011;69594;43.516;1.498;2023-06-22T04:38:38;7.57;;;2.50;;
80293;SDS011;69594;43.516;1.498;2023-06-22T04:41:04;6.00;;;2.75;;
80293;SDS011;69594;43.516;1.498;2023-06-22T04:43:29;7.13;;;2.50;;
80293;SDS011;69594;43.516;1.498;2023-06-22T04:45:55;6.83;;;2.83;;
80293;SDS011;69594;43.516;1.498;2023-06-22T04:48:28;7.47;;;2.87;;
80293;SDS011;69594;43.516;1.498;2023-06-22T04:50:58;4.63;;;2.50;;
80293;SDS011;69594;43.516;1.498;2023-06-22T04:53:28;6.03;;;2.90;;
80293;SDS011;69594;43.516;1.498;2023-06-22T04:55:54;9.07;;;2.97;;
80293;SDS011;69594;43.516;1.498;2023-06-22T04:58:21;8.30;;;3.10;;
80293;SDS011;69594;43.516;1.498;2023-06-22T05:00:53;12.45;;;5.95;;
80293;SDS011;69594;43.516;1.498;2023-06-22T05:03:21;9.27;;;3.28;;
80293;SDS011;69594;43.516;1.498;2023-06-22T05:05:47;7.97;;;3.93;;
80293;SDS011;69594;43.516;1.498;2023-06-22T05:08:13;8.43;;;3.70;;
80293;SDS011;69594;43.516;1.498;2023-06-22T05:10:38;8.00;;;4.20;;
80293;SDS011;69594;43.516;1.498;2023-06-22T05:13:04;5.87;;;3.73;;
80293;SDS011;69594;43.516;1.498;2023-06-22T05:15:29;8.00;;;3.57;;
80293;SDS011;69594;43.516;1.498;2023-06-22T05:17:58;8.73;;;4.05;;
80293;SDS011;69594;43.516;1.498;2023-06-22T05:20:23;9.30;;;4.50;;
80293;SDS011;69594;43.516;1.498;2023-06-22T05:22:49;6.70;;;4.03;;
80293;SDS011;69594;43.516;1.498;2023-06-22T05:25:14;6.80;;;3.90;;
80293;SDS011;69594;43.516;1.498;2023-06-22T05:27:40;7.10;;;4.13;;
80293;SDS011;69594;43.516;1.498;2023-06-22T05:30:05;11.77;;;4.17;;
80293;SDS011;69594;43.516;1.498;2023-06-22T05:32:32;7.13;;;4.35;;
80293;SDS011;69594;43.516;1.498;2023-06-22T05:34:58;6.93;;;4.70;;
80293;SDS011;69594;43.516;1.498;2023-06-22T05:37:24;7.80;;;4.50;;
80293;SDS011;69594;43.516;1.498;2023-06-22T05:39:49;9.63;;;3.95;;
80293;SDS011;69594;43.516;1.498;2023-06-22T05:42:14;10.63;;;4.43;;
80293;SDS011;69594;43.516;1.498;2023-06-22T05:44:40;8.87;;;4.10;;
80293;SDS011;69594;43.516;1.498;2023-06-22T05:47:05;9.77;;;4.23;;
80293;SDS011;69594;43.516;1.498;2023-06-22T05:49:31;8.18;;;4.90;;
80293;SDS011;69594;43.516;1.498;2023-06-22T05:51:58;8.00;;;4.70;;
80293;SDS011;69594;43.516;1.498;2023-06-22T05:54:27;10.77;;;4.70;;
80293;SDS011;69594;43.516;1.498;2023-06-22T05:56:53;12.48;;;4.95;;
80293;SDS011;69594;43.516;1.498;2023-06-22T05:59:19;10.30;;;5.00;;
80293;SDS011;69594;43.516;1.498;2023-06-22T06:01:47;8.65;;;4.68;;
80293;SDS011;69594;43.516;1.498;2023-06-22T06:04:24;10.20;;;4.57;;
80293;SDS011;69594;43.516;1.498;2023-06-22T06:10:07;9.85;;;4.88;;
80293;SDS011;69594;43.516;1.498;2023-06-22T06:12:43;13.93;;;5.50;;
80293;SDS011;69594;43.516;1.498;2023-06-22T06:15:09;8.93;;;4.40;;
80293;SDS011;69594;43.516;1.498;2023-06-22T06:17:35;8.63;;;4.27;;
80293;SDS011;69594;43.516;1.498;2023-06-22T06:20:01;8.57;;;4.35;;
80293;SDS011;69594;43.516;1.498;2023-06-22T06:22:32;10.15;;;4.72;;
80293;SDS011;69594;43.516;1.498;2023-06-22T06:25:04;8.57;;;4.07;;
80293;SDS011;69594;43.516;1.498;2023-06-22T06:27:30;8.87;;;4.77;;
80293;SDS011;69594;43.516;1.498;2023-06-22T06:29:56;13.55;;;4.70;;
80293;SDS011;69594;43.516;1.498;2023-06-22T06:32:21;10.80;;;4.63;;
80293;SDS011;69594;43.516;1.498;2023-06-22T06:34:47;8.57;;;4.30;;
80293;SDS011;69594;43.516;1.498;2023-06-22T06:37:12;7.80;;;4.50;;
80293;SDS011;69594;43.516;1.498;2023-06-22T06:39:38;8.83;;;4.83;;
80293;SDS011;69594;43.516;1.498;2023-06-22T06:42:04;9.33;;;4.63;;
80293;SDS011;69594;43.516;1.498;2023-06-22T06:44:30;11.50;;;4.60;;
80293;SDS011;69594;43.516;1.498;2023-06-22T06:46:55;9.27;;;4.33;;
80293;SDS011;69594;43.516;1.498;2023-06-22T06:49:21;7.47;;;4.03;;
80293;SDS011;69594;43.516;1.498;2023-06-22T06:51:46;10.07;;;4.40;;
80293;SDS011;69594;43.516;1.498;2023-06-22T06:54:12;6.77;;;4.20;;
80293;SDS011;69594;43.516;1.498;2023-06-22T06:56:37;8.30;;;4.57;;
80293;SDS011;69594;43.516;1.498;2023-06-22T06:59:03;8.90;;;4.53;;
80293;SDS011;69594;43.516;1.498;2023-06-22T07:01:28;5.50;;;3.73;;
80293;SDS011;69594;43.516;1.498;2023-06-22T07:03:58;7.93;;;4.00;;
80293;SDS011;69594;43.516;1.498;2023-06-22T07:06:24;8.07;;;4.05;;
80293;SDS011;69594;43.516;1.498;2023-06-22T07:08:54;9.57;;;4.07;;
80293;SDS011;69594;43.516;1.498;2023-06-22T07:11:20;7.28;;;3.92;;
80293;SDS011;69594;43.516;1.498;2023-06-22T07:13:45;7.50;;;3.95;;
80293;SDS011;69594;43.516;1.498;2023-06-22T07:16:11;8.90;;;3.37;;
80293;SDS011;69594;43.516;1.498;2023-06-22T07:18:36;7.73;;;3.40;;
80293;SDS011;69594;43.516;1.498;2023-06-22T07:21:02;8.07;;;4.30;;
80293;SDS011;69594;43.516;1.498;2023-06-22T07:23:31;6.63;;;3.28;;
80293;SDS011;69594;43.516;1.498;2023-06-22T07:25:56;8.00;;;3.40;;
80293;SDS011;69594;43.516;1.498;2023-06-22T07:28:22;7.53;;;3.37;;
80293;SDS011;69594;43.516;1.498;2023-06-22T07:30:47;6.67;;;3.13;;
80293;SDS011;69594;43.516;1.498;2023-06-22T07:33:13;6.60;;;3.60;;
80293;SDS011;69594;43.516;1.498;2023-06-22T07:35:38;4.95;;;3.10;;
80293;SDS011;69594;43.516;1.498;2023-06-22T07:38:04;8.23;;;3.30;;
80293;SDS011;69594;43.516;1.498;2023-06-22T07:40:30;6.13;;;3.40;;
80293;SDS011;69594;43.516;1.498;2023-06-22T07:42:55;6.53;;;2.83;;
80293;SDS011;69594;43.516;1.498;2023-06-22T07:45:22;4.47;;;2.60;;
80293;SDS011;69594;43.516;1.498;2023-06-22T07:47:47;5.15;;;2.65;;
80293;SDS011;69594;43.516;1.498;2023-06-22T07:50:13;6.20;;;2.50;;
80293;SDS011;69594;43.516;1.498;2023-06-22T07:52:39;4.10;;;2.70;;
80293;SDS011;69594;43.516;1.498;2023-06-22T07:55:04;7.00;;;2.70;;
80293;SDS011;69594;43.516;1.498;2023-06-22T07:57:30;2.80;;;2.03;;
80293;SDS011;69594;43.516;1.498;2023-06-22T08:00:05;4.70;;;2.40;;
80293;SDS011;69594;43.516;1.498;2023-06-22T08:02:44;4.30;;;2.25;;
80293;SDS011;69594;43.516;1.498;2023-06-22T08:05:11;6.00;;;2.33;;
80293;SDS011;69594;43.516;1.498;2023-06-22T08:07:37;4.88;;;2.38;;
80293;SDS011;69594;43.516;1.498;2023-06-22T08:10:04;3.27;;;2.00;;
80293;SDS011;69594;43.516;1.498;2023-06-22T08:12:30;4.63;;;1.60;;
80293;SDS011;69594;43.516;1.498;2023-06-22T08:14:56;4.07;;;2.00;;
80293;SDS011;69594;43.516;1.498;2023-06-22T08:17:22;3.17;;;2.10;;
80293;SDS011;69594;43.516;1.498;2023-06-22T08:19:48;5.10;;;2.10;;
80293;SDS011;69594;43.516;1.498;2023-06-22T08:22:13;4.40;;;1.90;;
80293;SDS011;69594;43.516;1.498;2023-06-22T08:24:40;8.73;;;2.20;;
80293;SDS011;69594;43.516;1.498;2023-06-22T08:27:07;5.05;;;2.10;;
80293;SDS011;69594;43.516;1.498;2023-06-22T08:29:34;4.23;;;1.93;;
80293;SDS011;69594;43.516;1.498;2023-06-22T08:32:09;4.03;;;2.20;;
80293;SDS011;69594;43.516;1.498;2023-06-22T08:34:35;4.72;;;2.28;;
80293;SDS011;69594;43.516;1.498;2023-06-22T08:37:00;4.37;;;1.57;;
80293;SDS011;69594;43.516;1.498;2023-06-22T08:39:26;3.75;;;1.90;;
80293;SDS011;69594;43.516;1.498;2023-06-22T08:41:52;4.10;;;2.13;;
80293;SDS011;69594;43.516;1.498;2023-06-22T08:44:18;3.80;;;1.97;;
80293;SDS011;69594;43.516;1.498;2023-06-22T08:46:44;6.72;;;2.20;;
80293;SDS011;69594;43.516;1.498;2023-06-22T08:49:10;4.57;;;2.38;;
80293;SDS011;69594;43.516;1.498;2023-06-22T08:51:36;4.97;;;2.10;;
80293;SDS011;69594;43.516;1.498;2023-06-22T08:54:01;8.17;;;2.40;;
80293;SDS011;69594;43.516;1.498;2023-06-22T08:56:31;3.90;;;2.00;;
80293;SDS011;69594;43.516;1.498;2023-06-22T08:58:57;4.43;;;1.90;;
80293;SDS011;69594;43.516;1.498;2023-06-22T09:01:22;3.90;;;2.00;;
80293;SDS011;69594;43.516;1.498;2023-06-22T09:03:48;3.58;;;1.90;;
80293;SDS011;69594;43.516;1.498;2023-06-22T09:06:19;4.17;;;1.80;;
80293;SDS011;69594;43.516;1.498;2023-06-22T09:08:46;3.95;;;2.30;;
80293;SDS011;69594;43.516;1.498;2023-06-22T09:11:12;5.72;;;2.55;;
80293;SDS011;69594;43.516;1.498;2023-06-22T09:13:37;3.57;;;2.30;;
80293;SDS011;69594;43.516;1.498;2023-06-22T09:16:03;6.23;;;2.23;;
80293;SDS011;69594;43.516;1.498;2023-06-22T09:18:29;4.63;;;2.50;;
80293;SDS011;69594;43.516;1.498;2023-06-22T09:20:54;4.67;;;2.60;;
80293;SDS011;69594;43.516;1.498;2023-06-22T09:23:21;4.80;;;2.55;;
80293;SDS011;69594;43.516;1.498;2023-06-22T09:25:46;3.60;;;2.03;;
80293;SDS011;69594;43.516;1.498;2023-06-22T09:28:13;5.38;;;2.47;;
80293;SDS011;69594;43.516;1.498;2023-06-22T09:30:39;5.53;;;2.03;;
80293;SDS011;69594;43.516;1.498;2023-06-22T09:33:04;6.60;;;2.28;;
80293;SDS011;69594;43.516;1.498;2023-06-22T09:35:30;4.37;;;2.00;;
80293;SDS011;69594;43.516;1.498;2023-06-22T09:37:55;4.77;;;2.00;;
80293;SDS011;69594;43.516;1.498;2023-06-22T09:40:20;4.70;;;2.20;;
80293;SDS011;69594;43.516;1.498;2023-06-22T09:42:46;4.00;;;2.45;;
80293;SDS011;69594;43.516;1.498;2023-06-22T09:45:11;5.30;;;2.37;;
80293;SDS011;69594;43.516;1.498;2023-06-22T09:47:37;4.88;;;2.38;;
80293;SDS011;69594;43.516;1.498;2023-06-22T09:50:03;6.37;;;2.10;;
80293;SDS011;69594;43.516;1.498;2023-06-22T09:52:29;6.03;;;2.70;;
80293;SDS011;69594;43.516;1.498;2023-06-22T09:54:55;3.93;;;1.90;;
80293;SDS011;69594;43.516;1.498;2023-06-22T09:57:20;4.23;;;1.93;;
80293;SDS011;69594;43.516;1.498;2023-06-22T09:59:46;6.77;;;2.23;;
80293;SDS011;69594;43.516;1.498;2023-06-22T10:02:11;5.18;;;2.53;;
80293;SDS011;69594;43.516;1.498;2023-06-22T10:04:38;4.65;;;2.42;;
80293;SDS011;69594;43.516;1.498;2023-06-22T10:07:04;5.30;;;2.40;;
80293;SDS011;69594;43.516;1.498;2023-06-22T10:09:30;3.97;;;2.20;;
80293;SDS011;69594;43.516;1.498;2023-06-22T10:11:55;5.50;;;2.07;;
80293;SDS011;69594;43.516;1.498;2023-06-22T10:14:21;3.45;;;2.20;;
80293;SDS011;69594;43.516;1.498;2023-06-22T10:16:47;4.73;;;2.30;;
80293;SDS011;69594;43.516;1.498;2023-06-22T10:19:13;3.85;;;2.45;;
80293;SDS011;69594;43.516;1.498;2023-06-22T10:21:39;6.33;;;2.53;;
80293;SDS011;69594;43.516;1.498;2023-06-22T10:24:04;4.43;;;2.07;;
80293;SDS011;69594;43.516;1.498;2023-06-22T10:26:34;5.47;;;2.38;;
80293;SDS011;69594;43.516;1.498;2023-06-22T10:29:01;4.07;;;2.25;;
80293;SDS011;69594;43.516;1.498;2023-06-22T10:31:27;3.47;;;2.38;;
80293;SDS011;69594;43.516;1.498;2023-06-22T10:33:53;4.50;;;2.23;;
80293;SDS011;69594;43.516;1.498;2023-06-22T10:36:20;4.45;;;2.55;;
80293;SDS011;69594;43.516;1.498;2023-06-22T10:38:48;7.78;;;2.42;;
80293;SDS011;69594;43.516;1.498;2023-06-22T10:41:15;3.23;;;2.20;;
80293;SDS011;69594;43.516;1.498;2023-06-22T10:43:41;5.63;;;2.60;;
80293;SDS011;69594;43.516;1.498;2023-06-22T10:46:07;3.00;;;2.13;;
80293;SDS011;69594;43.516;1.498;2023-06-22T10:48:32;4.38;;;2.55;;
80293;SDS011;69594;43.516;1.498;2023-06-22T10:50:58;4.93;;;2.70;;
80293;SDS011;69594;43.516;1.498;2023-06-22T10:53:24;3.83;;;2.20;;
80293;SDS011;69594;43.516;1.498;2023-06-22T10:55:49;3.53;;;2.27;;
80293;SDS011;69594;43.516;1.498;2023-06-22T10:58:16;4.03;;;2.30;;
80293;SDS011;69594;43.516;1.498;2023-06-22T11:00:43;7.80;;;2.70;;
80293;SDS011;69594;43.516;1.498;2023-06-22T11:03:08;4.03;;;2.80;;
80293;SDS011;69594;43.516;1.498;2023-06-22T11:05:33;3.70;;;2.60;;
80293;SDS011;69594;43.516;1.498;2023-06-22T11:07:59;4.13;;;2.33;;
80293;SDS011;69594;43.516;1.498;2023-06-22T11:10:24;4.43;;;2.50;;
80293;SDS011;69594;43.516;1.498;2023-06-22T11:12:51;5.07;;;2.70;;
80293;SDS011;69594;43.516;1.498;2023-06-22T11:15:16;4.43;;;2.40;;
80293;SDS011;69594;43.516;1.498;2023-06-22T11:17:42;4.80;;;2.30;;
80293;SDS011;69594;43.516;1.498;2023-06-22T11:20:07;4.83;;;2.50;;
80293;SDS011;69594;43.516;1.498;2023-06-22T11:22:39;2.88;;;2.17;;
80293;SDS011;69594;43.516;1.498;2023-06-22T11:25:06;7.85;;;2.55;;
80293;SDS011;69594;43.516;1.498;2023-06-22T11:27:32;4.18;;;2.78;;
80293;SDS011;69594;43.516;1.498;2023-06-22T11:29:59;4.73;;;2.50;;
80293;SDS011;69594;43.516;1.498;2023-06-22T11:32:24;3.35;;;2.20;;
80293;SDS011;69594;43.516;1.498;2023-06-22T11:34:50;4.13;;;2.40;;
80293;SDS011;69594;43.516;1.498;2023-06-22T11:37:16;3.63;;;2.20;;
80293;SDS011;69594;43.516;1.498;2023-06-22T11:39:41;3.55;;;2.28;;
80293;SDS011;69594;43.516;1.498;2023-06-22T11:42:07;4.75;;;2.22;;
80293;SDS011;69594;43.516;1.498;2023-06-22T11:44:37;4.93;;;2.17;;
80293;SDS011;69594;43.516;1.498;2023-06-22T11:47:02;5.35;;;2.85;;
80293;SDS011;69594;43.516;1.498;2023-06-22T11:49:29;5.82;;;2.67;;
80293;SDS011;69594;43.516;1.498;2023-06-22T11:51:55;4.72;;;3.03;;
80293;SDS011;69594;43.516;1.498;2023-06-22T11:54:21;4.23;;;2.40;;
80293;SDS011;69594;43.516;1.498;2023-06-22T11:56:46;5.50;;;2.67;;
80293;SDS011;69594;43.516;1.498;2023-06-22T11:59:12;5.57;;;2.67;;
80293;SDS011;69594;43.516;1.498;2023-06-22T12:01:37;3.77;;;2.13;;
80293;SDS011;69594;43.516;1.498;2023-06-22T12:04:02;4.43;;;2.73;;
80293;SDS011;69594;43.516;1.498;2023-06-22T12:06:31;3.80;;;2.83;;
80293;SDS011;69594;43.516;1.498;2023-06-22T12:09:03;3.75;;;2.78;;
80293;SDS011;69594;43.516;1.498;2023-06-22T12:11:30;4.30;;;2.43;;
80293;SDS011;69594;43.516;1.498;2023-06-22T12:13:55;3.25;;;2.13;;
80293;SDS011;69594;43.516;1.498;2023-06-22T12:16:21;4.23;;;2.73;;
80293;SDS011;69594;43.516;1.498;2023-06-22T12:18:47;3.67;;;2.23;;
80293;SDS011;69594;43.516;1.498;2023-06-22T12:21:12;4.60;;;2.28;;
80293;SDS011;69594;43.516;1.498;2023-06-22T12:23:39;3.90;;;2.70;;
80293;SDS011;69594;43.516;1.498;2023-06-22T12:26:10;3.83;;;2.65;;
80293;SDS011;69594;43.516;1.498;2023-06-22T12:28:42;4.50;;;2.63;;
80293;SDS011;69594;43.516;1.498;2023-06-22T12:31:08;3.97;;;2.50;;
80293;SDS011;69594;43.516;1.498;2023-06-22T12:33:33;3.03;;;2.03;;
80293;SDS011;69594;43.516;1.498;2023-06-22T12:35:59;3.90;;;2.23;;
80293;SDS011;69594;43.516;1.498;2023-06-22T12:38:24;3.93;;;1.83;;
80293;SDS011;69594;43.516;1.498;2023-06-22T12:40:51;3.78;;;2.17;;
80293;SDS011;69594;43.516;1.498;2023-06-22T12:43:16;4.38;;;2.05;;
80293;SDS011;69594;43.516;1.498;2023-06-22T12:45:43;4.18;;;2.25;;
80293;SDS011;69594;43.516;1.498;2023-06-22T12:48:09;3.80;;;2.50;;
80293;SDS011;69594;43.516;1.498;2023-06-22T12:50:34;3.30;;;2.10;;
80293;SDS011;69594;43.516;1.498;2023-06-22T12:53:00;4.97;;;2.30;;
80293;SDS011;69594;43.516;1.498;2023-06-22T12:55:27;5.93;;;2.20;;
80293;SDS011;69594;43.516;1.498;2023-06-22T12:57:53;4.80;;;2.20;;
80293;SDS011;69594;43.516;1.498;2023-06-22T13:00:18;3.03;;;2.20;;
80293;SDS011;69594;43.516;1.498;2023-06-22T13:02:44;2.78;;;2.47;;
80293;SDS011;69594;43.516;1.498;2023-06-22T13:05:10;3.73;;;2.27;;
80293;SDS011;69594;43.516;1.498;2023-06-22T13:07:36;4.00;;;1.80;;
80293;SDS011;69594;43.516;1.498;2023-06-22T13:10:01;5.47;;;1.77;;
80293;SDS011;69594;43.516;1.498;2023-06-22T13:12:27;3.03;;;1.75;;
80293;SDS011;69594;43.516;1.498;2023-06-22T13:15:00;3.60;;;1.93;;
80293;SDS011;69594;43.516;1.498;2023-06-22T13:17:27;4.25;;;2.08;;
80293;SDS011;69594;43.516;1.498;2023-06-22T13:19:53;4.38;;;2.03;;
80293;SDS011;69594;43.516;1.498;2023-06-22T13:22:31;3.88;;;2.13;;
80293;SDS011;69594;43.516;1.498;2023-06-22T13:24:58;4.13;;;2.40;;
80293;SDS011;69594;43.516;1.498;2023-06-22T13:27:24;4.50;;;2.50;;
80293;SDS011;69594;43.516;1.498;2023-06-22T13:29:50;4.22;;;2.65;;
80293;SDS011;69594;43.516;1.498;2023-06-22T13:32:15;4.57;;;2.30;;
80293;SDS011;69594;43.516;1.498;2023-06-22T13:34:41;4.45;;;2.45;;
80293;SDS011;69594;43.516;1.498;2023-06-22T13:37:07;3.08;;;2.20;;
80293;SDS011;69594;43.516;1.498;2023-06-22T13:39:33;8.23;;;2.30;;
80293;SDS011;69594;43.516;1.498;2023-06-22T13:41:58;3.47;;;2.30;;
80293;SDS011;69594;43.516;1.498;2023-06-22T13:44:24;4.43;;;2.33;;
80293;SDS011;69594;43.516;1.498;2023-06-22T13:46:53;6.38;;;2.60;;
80293;SDS011;69594;43.516;1.498;2023-06-22T13:49:19;4.65;;;2.47;;
80293;SDS011;69594;43.516;1.498;2023-06-22T13:51:45;3.97;;;2.30;;
80293;SDS011;69594;43.516;1.498;2023-06-22T13:54:13;5.30;;;2.60;;
80293;SDS011;69594;43.516;1.498;2023-06-22T13:56:38;3.17;;;2.33;;
80293;SDS011;69594;43.516;1.498;2023-06-22T13:59:04;2.90;;;2.23;;
80293;SDS011;69594;43.516;1.498;2023-06-22T14:01:32;2.90;;;2.30;;
80293;SDS011;69594;43.516;1.498;2023-06-22T14:03:57;4.33;;;2.17;;
80293;SDS011;69594;43.516;1.498;2023-06-22T14:06:23;4.40;;;2.70;;
80293;SDS011;69594;43.516;1.498;2023-06-22T14:08:48;5.47;;;2.73;;
80293;SDS011;69594;43.516;1.498;2023-06-22T14:11:16;3.60;;;2.05;;
80293;SDS011;69594;43.516;1.498;2023-06-22T14:13:41;5.20;;;2.83;;
80293;SDS011;69594;43.516;1.498;2023-06-22T14:16:07;6.22;;;3.10;;
80293;SDS011;69594;43.516;1.498;2023-06-22T14:18:33;6.00;;;3.10;;
80293;SDS011;69594;43.516;1.498;2023-06-22T14:21:01;6.60;;;2.90;;
80293;SDS011;69594;43.516;1.498;2023-06-22T14:23:26;4.57;;;2.80;;
80293;SDS011;69594;43.516;1.498;2023-06-22T14:25:52;4.80;;;3.20;;
80293;SDS011;69594;43.516;1.498;2023-06-22T14:28:17;5.63;;;3.30;;
80293;SDS011;69594;43.516;1.498;2023-06-22T14:30:43;7.93;;;5.43;;
80293;SDS011;69594;43.516;1.498;2023-06-22T14:33:08;7.28;;;4.38;;
80293;SDS011;69594;43.516;1.498;2023-06-22T14:35:34;5.57;;;3.47;;
80293;SDS011;69594;43.516;1.498;2023-06-22T14:37:59;4.80;;;3.30;;
80293;SDS011;69594;43.516;1.498;2023-06-22T14:40:25;6.70;;;3.37;;
80293;SDS011;69594;43.516;1.498;2023-06-22T14:42:50;5.47;;;3.00;;
80293;SDS011;69594;43.516;1.498;2023-06-22T14:45:16;5.20;;;3.50;;
80293;SDS011;69594;43.516;1.498;2023-06-22T14:47:41;4.17;;;2.90;;
80293;SDS011;69594;43.516;1.498;2023-06-22T14:50:06;5.13;;;2.93;;
80293;SDS011;69594;43.516;1.498;2023-06-22T14:52:32;6.05;;;3.30;;
80293;SDS011;69594;43.516;1.498;2023-06-22T14:54:57;3.20;;;2.37;;
80293;SDS011;69594;43.516;1.498;2023-06-22T14:57:23;5.67;;;3.13;;
80293;SDS011;69594;43.516;1.498;2023-06-22T14:59:49;8.83;;;3.20;;